Time;durP1;ratioP1;P1;durP2;ratioP2;P2;SDS_P1;SDS_P2;PMS_P1;PMS_P2;Temp;Humidity;BMP_temperature;BMP_pressure;BME280_temperature;BME280_humidity;BME280_pressure;Samples;Min_cycle;Max_cycle;Signal;HPM_P1;HPM_P2
2022/12/25 00:01:56;;;;;;;46.90;38.00;;;;;;;7.24;76.84;100527.84;108835;1263;21942;-81
2022/12/25 00:04:25;;;;;;;58.20;38.60;;;;;;;7.24;76.99;100529.55;108944;1275;23087;-79
2022/12/25 00:06:54;;;;;;;49.20;35.70;;;;;;;7.26;77.03;100539.39;108979;1266;23057;-80
2022/12/25 00:09:24;;;;;;;50.30;36.60;;;;;;;7.26;77.03;100544.21;108768;1273;21952;-78
2022/12/25 00:11:53;;;;;;;46.60;34.00;;;;;;;7.27;76.97;100545.77;108472;1275;23103;-78
2022/12/25 00:14:22;;;;;;;53.40;36.00;;;;;;;7.27;76.97;100543.35;108489;1280;21987;-80
2022/12/25 00:16:51;;;;;;;48.30;34.80;;;;;;;7.28;76.94;100539.52;108198;1280;21972;-79
2022/12/25 00:19:20;;;;;;;53.20;34.40;;;;;;;7.27;76.92;100538.50;108212;1282;21939;-79
2022/12/25 00:21:49;;;;;;;52.70;34.70;;;;;;;7.30;77.10;100540.69;108372;1283;22738;-81
2022/12/25 00:24:18;;;;;;;51.60;35.90;;;;;;;7.32;77.06;100540.30;108395;1282;21937;-80
2022/12/25 00:26:47;;;;;;;54.60;37.30;;;;;;;7.32;77.02;100541.69;108495;1282;22406;-82
2022/12/25 00:29:17;;;;;;;50.20;34.20;;;;;;;7.29;76.77;100546.42;108572;1275;23860;-81
2022/12/25 00:31:46;;;;;;;48.90;33.20;;;;;;;7.28;76.91;100552.84;108964;1275;22050;-82
2022/12/25 00:34:15;;;;;;;44.70;33.20;;;;;;;7.29;76.94;100554.73;108797;1275;23668;-82
2022/12/25 00:36:44;;;;;;;41.70;31.10;;;;;;;7.29;76.88;100552.31;108956;1260;21928;-83
2022/12/25 00:39:13;;;;;;;43.20;30.60;;;;;;;7.30;77.00;100548.48;108915;1274;24307;-81
2022/12/25 00:44:30;;;;;;;42.10;29.30;;;;;;;7.25;76.85;100549.10;108833;1266;22000;-81
2022/12/25 00:47:00;;;;;;;41.10;28.20;;;;;;;7.24;76.84;100554.32;108768;1275;22010;-81
2022/12/25 00:49:29;;;;;;;38.60;27.70;;;;;;;7.23;76.90;100561.08;108848;1275;23093;-81
2022/12/25 00:51:58;;;;;;;35.90;25.20;;;;;;;7.24;76.92;100567.30;108793;1275;21943;-81
2022/12/25 00:54:27;;;;;;;36.80;24.00;;;;;;;7.24;76.86;100573.52;108901;1261;22594;-82
2022/12/25 00:56:56;;;;;;;34.00;23.70;;;;;;;7.24;76.86;100575.27;108832;1274;21941;-81
2022/12/25 00:59:26;;;;;;;31.70;22.70;;;;;;;7.22;76.85;100573.04;108868;1275;21950;-80
2022/12/25 01:01:55;;;;;;;36.10;24.90;;;;;;;7.23;77.02;100575.79;108802;1275;22349;-81
2022/12/25 01:04:24;;;;;;;40.50;23.80;;;;;;;7.26;77.05;100579.71;108807;1272;23103;-81
2022/12/25 01:06:53;;;;;;;35.50;24.30;;;;;;;7.29;77.05;100585.02;108575;1275;22759;-83
2022/12/25 01:12:09;;;;;;;33.30;22.70;;;;;;;7.29;77.02;100584.86;108999;1272;21930;-80
2022/12/25 01:14:38;;;;;;;27.80;21.60;;;;;;;7.30;77.05;100582.75;108943;1272;23118;-81
2022/12/25 01:17:07;;;;;;;25.10;20.50;;;;;;;7.32;77.07;100588.42;108909;1268;23088;-79
2022/12/25 01:19:36;;;;;;;32.30;21.60;;;;;;;7.33;77.02;100591.86;108661;1275;21906;-79
2022/12/25 01:22:07;;;;;;;31.00;19.10;;;;;;;7.34;77.06;100594.61;108605;1275;21920;-81
2022/12/25 01:24:36;;;;;;;27.90;18.50;;;;;;;7.37;77.04;100599.05;108689;1275;21926;-80
2022/12/25 01:27:05;;;;;;;25.20;18.20;;;;;;;7.36;76.97;100593.36;108730;1273;22361;-79
2022/12/25 01:29:34;;;;;;;28.80;18.50;;;;;;;7.34;76.96;100594.44;108718;1275;21926;-80
2022/12/25 01:32:04;;;;;;;28.50;18.70;;;;;;;7.35;77.06;100593.90;108932;1266;23818;-80
2022/12/25 01:34:34;;;;;;;23.00;18.70;;;;;;;7.35;77.08;100589.40;108737;1274;21934;-79
2022/12/25 01:37:03;;;;;;;30.30;19.30;;;;;;;7.35;76.97;100585.24;108802;1275;23103;-80
2022/12/25 01:39:32;;;;;;;25.30;19.40;;;;;;;7.35;77.10;100583.88;108878;1275;23692;-80
2022/12/25 01:42:01;;;;;;;25.10;19.20;;;;;;;7.36;77.01;100581.58;108777;1275;22816;-80
2022/12/25 01:44:34;;;;;;;27.70;19.60;;;;;;;7.37;76.99;100581.05;108892;1275;23567;-80
2022/12/25 01:47:04;;;;;;;;;;;;;;;7.37;77.06;100580.52;108898;1275;21923;-80
2022/12/25 01:49:36;;;;;;;27.30;19.70;;;;;;;7.31;77.37;100581.52;108982;1269;21941;-81
2022/12/25 01:52:13;;;;;;;;;;;;;;;7.34;77.31;100587.85;108888;1275;21959;-81
2022/12/25 01:54:59;;;;;;;22.90;17.00;;;;;;;7.27;77.50;100596.48;108814;1275;21913;-80
2022/12/25 01:57:33;;;;;;;23.60;16.40;;;;;;;7.31;77.50;100606.80;108778;1275;23368;-79
2022/12/25 02:00:05;;;;;;;21.20;16.30;;;;;;;7.34;77.40;100609.14;108925;1274;22706;-79
2022/12/25 02:02:34;;;;;;;;;;;;;;;7.38;77.28;100612.71;108963;1274;21907;-79
2022/12/25 02:05:24;;;;;;;23.90;16.90;;;;;;;7.33;77.47;100612.81;108826;1275;21969;-79
2022/12/25 02:07:55;;;;;;;24.90;17.00;;;;;;;7.33;77.24;100614.71;108810;1275;21943;-79
2022/12/25 02:10:24;;;;;;;27.60;16.70;;;;;;;7.34;77.24;100615.90;108848;1275;21989;-80
2022/12/25 02:12:54;;;;;;;21.80;16.20;;;;;;;7.37;77.22;100616.36;108785;1274;21997;-79
2022/12/25 02:16:02;;;;;;;21.40;16.40;;;;;;;7.40;77.14;100611.12;108832;1269;22642;-80
2022/12/25 02:18:56;;;;;;;26.80;17.80;;;;;;;7.40;77.14;100609.02;108282;1283;23091;-79
2022/12/25 02:21:55;;;;;;;26.60;19.10;;;;;;;7.41;77.02;100609.55;108375;1282;22075;-81
2022/12/25 02:25:19;;;;;;;22.60;16.60;;;;;;;7.39;76.96;100612.34;108538;1282;23686;-80
2022/12/25 02:28:10;;;;;;;32.50;19.40;;;;;;;7.37;76.93;100616.90;108274;1283;21939;-80
2022/12/25 02:30:53;;;;;;;30.30;20.00;;;;;;;7.33;76.79;100624.08;108362;1282;23042;-82
2022/12/25 02:36:50;;;;;;;27.60;19.20;;;;;;;7.29;76.72;100629.69;108579;1282;22806;-81
2022/12/25 02:40:05;;;;;;;27.80;20.40;;;;;;;7.26;76.74;100630.43;108379;1280;21955;-79
2022/12/25 03:06:45;;;;;;;28.50;19.30;;;;;;;7.34;76.70;100668.71;108079;1286;21997;-82
2022/12/25 03:12:38;;;;;;;29.40;18.60;;;;;;;7.30;76.62;100665.15;107821;1286;23229;-80
2022/12/25 03:18:02;;;;;;;23.70;18.20;;;;;;;7.30;76.78;100665.85;107804;1284;23064;-81
2022/12/25 03:29:03;;;;;;;22.90;17.20;;;;;;;7.30;76.52;100666.04;108650;1259;23357;-79
2022/12/25 03:32:04;;;;;;;23.40;17.40;;;;;;;7.31;76.64;100676.74;108689;1276;21932;-78
2022/12/25 04:36:08;;;;;;;76.90;56.20;;;;;;;7.38;76.11;100714.70;108773;1273;23690;-79
2022/12/25 04:38:39;;;;;;;32.00;21.50;;;;;;;7.37;76.15;100717.48;108689;1275;21987;-79
2022/12/25 04:41:11;;;;;;;23.30;16.10;;;;;;;7.37;76.09;100717.64;108633;1275;23057;-80
2022/12/25 04:43:40;;;;;;;;;;;;;;;7.38;76.04;100715.91;108598;1275;22684;-80
2022/12/25 04:46:09;;;;;;;15.40;11.00;;;;;;;7.29;76.34;100716.06;108570;1275;21932;-81
2022/12/25 04:48:38;;;;;;;22.10;11.30;;;;;;;7.32;76.32;100722.42;108771;1275;21937;-81
2022/12/25 04:51:20;;;;;;;14.60;10.10;;;;;;;7.33;76.21;100723.27;108763;1275;22338;-82
2022/12/25 04:53:51;;;;;;;12.70;9.90;;;;;;;7.34;76.18;100718.92;108827;1275;21994;-82
2022/12/25 04:56:23;;;;;;;18.20;11.00;;;;;;;7.36;76.14;100718.20;108549;1275;23601;-81
2022/12/25 04:58:52;;;;;;;19.20;10.40;;;;;;;7.40;76.15;100717.95;108868;1274;23043;-81
2022/12/25 05:01:21;;;;;;;17.90;11.30;;;;;;;7.41;76.05;100720.53;108769;1275;21969;-81
2022/12/25 05:03:51;;;;;;;18.70;10.90;;;;;;;7.39;75.76;100725.91;108916;1272;21962;-82
2022/12/25 05:06:21;;;;;;;18.90;11.90;;;;;;;7.37;75.75;100725.61;108861;1271;21932;-82
2022/12/25 05:08:50;;;;;;;19.00;12.40;;;;;;;7.36;75.74;100725.64;108791;1273;21943;-82
2022/12/25 05:11:20;;;;;;;25.70;14.50;;;;;;;7.32;75.64;100723.46;108867;1275;21972;-81
2022/12/25 05:13:49;;;;;;;26.80;17.90;;;;;;;7.30;75.73;100722.64;108828;1275;23082;-81
2022/12/25 05:16:19;;;;;;;24.70;16.60;;;;;;;7.30;75.76;100723.85;108815;1275;23669;-82
2022/12/25 05:18:50;;;;;;;24.20;19.30;;;;;;;7.32;75.86;100725.20;108840;1269;21943;-81
2022/12/25 05:21:19;;;;;;;22.00;15.60;;;;;;;7.32;75.79;100722.77;108438;1280;22557;-81
2022/12/25 05:23:50;;;;;;;24.10;15.50;;;;;;;7.28;75.73;100728.54;108366;1280;22493;-81
2022/12/25 05:26:23;;;;;;;75.10;47.90;;;;;;;7.25;75.77;100733.64;108449;1280;22404;-81
2022/12/25 05:28:54;;;;;;;38.90;25.10;;;;;;;7.23;75.92;100740.05;108168;1280;21971;-81
2022/12/25 05:31:23;;;;;;;28.40;17.10;;;;;;;7.24;76.03;100745.07;108481;1269;21957;-81
2022/12/25 05:33:52;;;;;;;29.40;17.00;;;;;;;7.27;76.18;100749.17;108442;1280;21940;-81
2022/12/25 05:36:21;;;;;;;27.60;17.00;;;;;;;7.29;76.15;100754.16;108433;1280;23779;-81
2022/12/25 05:38:50;;;;;;;29.30;19.00;;;;;;;7.29;76.05;100755.54;108460;1275;21943;-81
2022/12/25 05:41:19;;;;;;;32.10;25.40;;;;;;;7.31;76.20;100758.44;108857;1269;21935;-81
2022/12/25 05:43:48;;;;;;;30.20;20.50;;;;;;;7.35;76.13;100759.57;108892;1275;21990;-79
2022/12/25 05:46:17;;;;;;;37.10;24.10;;;;;;;7.37;76.12;100760.59;108688;1274;21946;-82
2022/12/25 05:48:46;;;;;;;52.10;37.50;;;;;;;7.40;76.26;100762.09;108838;1275;23007;-82
2022/12/25 05:51:15;;;;;;;37.50;31.10;;;;;;;7.42;76.26;100762.74;108958;1264;21939;-82
2022/12/25 05:53:44;;;;;;;34.00;25.80;;;;;;;7.43;76.22;100766.89;108931;1263;21940;-81
2022/12/25 05:56:13;;;;;;;40.80;29.20;;;;;;;7.45;76.27;100770.14;108858;1275;21954;-82
2022/12/25 05:58:42;;;;;;;37.20;26.40;;;;;;;7.48;76.18;100772.35;108844;1275;21961;-83
2022/12/25 06:01:22;;;;;;;36.00;25.20;;;;;;;7.49;76.09;100780.64;108877;1275;22789;-84
2022/12/25 06:03:51;;;;;;;36.10;25.00;;;;;;;7.46;76.08;100785.88;108856;1273;21962;-81
2022/12/25 06:06:20;;;;;;;39.90;26.30;;;;;;;7.47;76.23;100791.77;108828;1275;21935;-81
2022/12/25 06:08:53;;;;;;;35.10;26.60;;;;;;;7.48;76.20;100794.00;108821;1275;21967;-81
2022/12/25 06:11:23;;;;;;;34.60;26.20;;;;;;;7.47;76.16;100793.15;108861;1275;21960;-80
2022/12/25 06:13:52;;;;;;;37.50;27.50;;;;;;;7.47;76.17;100803.20;108820;1266;21990;-80
2022/12/25 06:16:21;;;;;;;43.50;28.10;;;;;;;7.45;76.10;100806.15;108708;1275;21982;-80
2022/12/25 06:18:51;;;;;;;40.10;29.20;;;;;;;7.42;76.08;100810.71;108763;1275;21950;-80
2022/12/25 06:21:20;;;;;;;35.90;28.90;;;;;;;7.41;76.10;100819.23;108815;1275;21954;-78
2022/12/25 06:23:49;;;;;;;37.60;28.70;;;;;;;7.40;76.10;100816.98;108966;1275;23140;-80
2022/12/25 06:26:19;;;;;;;36.90;28.40;;;;;;;7.39;76.32;100818.21;108867;1275;21960;-80
2022/12/25 06:28:48;;;;;;;37.10;28.60;;;;;;;7.42;76.44;100820.94;108898;1275;24305;-82
2022/12/25 06:31:21;;;;;;;34.90;27.00;;;;;;;7.41;76.34;100831.50;108812;1275;21940;-79
2022/12/25 06:33:50;;;;;;;36.50;29.50;;;;;;;7.38;76.38;100834.16;108560;1275;21994;-80
2022/12/25 06:36:23;;;;;;;40.60;28.00;;;;;;;7.35;76.33;100830.74;108578;1275;22471;-80
2022/12/25 06:38:53;;;;;;;35.80;29.30;;;;;;;7.35;76.52;100830.92;108593;1275;22042;-80
2022/12/25 06:41:24;;;;;;;34.70;26.80;;;;;;;7.36;76.56;100831.25;108627;1275;21940;-82
2022/12/25 06:43:58;;;;;;;38.90;29.00;;;;;;;7.38;76.70;100833.29;108871;1277;21953;-83
2022/12/25 06:46:29;;;;;;;38.60;31.20;;;;;;;7.40;76.64;100838.11;108624;1275;21931;-81
2022/12/25 06:48:59;;;;;;;41.10;33.50;;;;;;;7.41;76.65;100839.65;108851;1277;21948;-81
2022/12/25 06:51:30;;;;;;;44.30;36.60;;;;;;;7.38;76.52;100850.96;108653;1266;23136;-82
2022/12/25 06:54:03;;;;;;;45.40;39.30;;;;;;;7.34;76.52;100859.85;108802;1272;21943;-82
2022/12/25 06:56:33;;;;;;;51.30;42.20;;;;;;;7.34;76.65;100867.83;108792;1278;23036;-81
2022/12/25 06:59:07;;;;;;;43.60;35.70;;;;;;;7.38;76.84;100870.19;108859;1275;21953;-80
2022/12/25 07:01:47;;;;;;;43.20;36.40;;;;;;;7.41;76.75;100873.77;108620;1278;23026;-80
2022/12/25 07:04:39;;;;;;;40.90;32.70;;;;;;;7.43;76.75;100873.73;108798;1266;21938;-81
2022/12/25 07:07:09;;;;;;;36.90;29.90;;;;;;;7.44;76.81;100877.16;108757;1277;21918;-80
2022/12/25 07:09:41;;;;;;;40.50;28.80;;;;;;;7.46;76.80;100875.77;108766;1277;22292;-81
2022/12/25 07:12:22;;;;;;;38.60;29.40;;;;;;;7.47;76.73;100876.44;108623;1273;21918;-81
2022/12/25 07:14:54;;;;;;;39.50;31.80;;;;;;;7.46;76.65;100876.98;108794;1275;21939;-80
2022/12/25 07:17:23;;;;;;;38.80;30.20;;;;;;;7.47;76.74;100880.77;108636;1272;23654;-78
2022/12/25 07:19:53;;;;;;;37.00;28.90;;;;;;;7.47;76.60;100882.34;108671;1275;21943;-81
2022/12/25 07:22:22;;;;;;;32.10;26.60;;;;;;;7.45;76.51;100881.67;108689;1275;23823;-82
2022/12/25 07:24:51;;;;;;;32.60;24.50;;;;;;;7.42;76.35;100879.82;108954;1275;21935;-82
2022/12/25 07:27:20;;;;;;;34.10;26.40;;;;;;;7.39;76.45;100877.44;108977;1275;21949;-81
2022/12/25 07:29:49;;;;;;;40.30;26.10;;;;;;;7.42;76.63;100883.27;108889;1275;23672;-81
2022/12/25 07:32:18;;;;;;;30.10;25.10;;;;;;;7.44;76.73;100889.14;108952;1275;21937;-82
2022/12/25 07:34:47;;;;;;;35.60;26.60;;;;;;;7.45;76.74;100888.06;108879;1275;23600;-82
2022/12/25 07:37:16;;;;;;;35.00;25.30;;;;;;;7.49;76.85;100893.04;108901;1274;21816;-82
2022/12/25 07:39:45;;;;;;;34.10;27.30;;;;;;;7.51;76.78;100894.23;108970;1274;22614;-82
2022/12/25 07:42:15;;;;;;;37.20;26.50;;;;;;;7.54;76.74;100897.45;108736;1269;21976;-82
2022/12/25 07:44:51;;;;;;;34.20;25.30;;;;;;;7.56;76.72;100895.17;108914;1275;23082;-83
2022/12/25 07:47:20;;;;;;;33.80;25.10;;;;;;;7.55;76.53;100896.05;108887;1275;21937;-82
2022/12/25 07:49:49;;;;;;;36.50;25.30;;;;;;;7.54;76.50;100892.95;108850;1275;23754;-82
2022/12/25 07:52:18;;;;;;;43.90;30.10;;;;;;;7.55;76.44;100888.95;108791;1275;22801;-82
2022/12/25 07:54:47;;;;;;;36.90;28.40;;;;;;;7.55;76.35;100886.35;108779;1275;23591;-82
2022/12/25 07:57:16;;;;;;;35.10;25.30;;;;;;;7.56;76.30;100891.70;108826;1275;23045;-83
2022/12/25 07:59:45;;;;;;;30.00;24.70;;;;;;;7.57;76.31;100889.95;108792;1275;21985;-83
2022/12/25 08:02:14;;;;;;;28.50;23.00;;;;;;;7.60;76.39;100889.72;108917;1275;23607;-82
2022/12/25 08:04:44;;;;;;;37.90;25.30;;;;;;;7.65;76.55;100895.19;108988;1272;21939;-81
2022/12/25 08:07:13;;;;;;;32.10;24.00;;;;;;;7.73;76.71;100902.48;108866;1275;23656;-81
2022/12/25 08:09:42;;;;;;;34.10;25.90;;;;;;;7.79;76.57;100899.27;108368;1280;23075;-80
2022/12/25 08:12:11;;;;;;;27.10;23.00;;;;;;;7.81;76.15;100900.12;108691;1280;21932;-83
2022/12/25 08:14:40;;;;;;;31.90;26.90;;;;;;;7.78;75.99;100903.97;108296;1263;23243;-82
2022/12/25 08:17:10;;;;;;;29.60;26.10;;;;;;;7.77;75.83;100906.92;108405;1281;21945;-83
2022/12/25 08:19:39;;;;;;;33.50;28.10;;;;;;;7.76;75.76;100913.20;108496;1280;22894;-79
2022/12/25 08:22:08;;;;;;;34.80;28.30;;;;;;;7.73;75.76;100910.81;108172;1281;21943;-78
2022/12/25 08:24:37;;;;;;;38.50;32.90;;;;;;;7.74;75.88;100901.98;108289;1281;21956;-80
2022/12/25 08:27:06;;;;;;;37.50;31.20;;;;;;;7.77;75.96;100900.88;108549;1275;21933;-79
2022/12/25 08:29:35;;;;;;;35.20;31.00;;;;;;;7.78;75.82;100901.55;108936;1275;22388;-80
2022/12/25 08:32:04;;;;;;;38.10;30.40;;;;;;;7.77;75.66;100899.15;108721;1275;22796;-80
2022/12/25 08:34:33;;;;;;;35.70;30.60;;;;;;;7.77;75.79;100895.84;108786;1275;21998;-81
2022/12/25 08:37:02;;;;;;;50.00;43.60;;;;;;;7.82;75.96;100899.39;108831;1275;21946;-81
2022/12/25 08:39:31;;;;;;;55.40;49.30;;;;;;;7.89;76.06;100898.23;108868;1261;23048;-80
2022/12/25 08:42:01;;;;;;;61.60;53.30;;;;;;;7.96;76.03;100897.94;108839;1275;21945;-80
2022/12/25 08:44:30;;;;;;;54.00;45.10;;;;;;;7.94;75.54;100899.52;108764;1275;21951;-80
2022/12/25 08:46:59;;;;;;;53.10;47.30;;;;;;;7.91;75.37;100904.78;108867;1275;21939;-80
2022/12/25 08:49:28;;;;;;;59.70;48.20;;;;;;;7.92;75.65;100905.30;108950;1275;21965;-81
2022/12/25 08:51:57;;;;;;;43.30;36.30;;;;;;;7.95;75.56;100904.89;108881;1275;23000;-80
2022/12/25 08:54:26;;;;;;;40.60;36.00;;;;;;;7.92;75.21;100912.23;108607;1275;21930;-81
2022/12/25 08:56:55;;;;;;;52.30;42.40;;;;;;;7.89;75.34;100918.17;108629;1275;21966;-81
2022/12/25 08:59:30;;;;;;;48.20;43.00;;;;;;;7.88;75.34;100925.82;108656;1275;23058;-81
2022/12/25 09:02:00;;;;;;;45.60;35.60;;;;;;;7.90;75.38;100929.59;108617;1275;22038;-81
2022/12/25 09:04:29;;;;;;;47.40;41.90;;;;;;;7.93;75.38;100930.91;108951;1275;23681;-81
2022/12/25 09:06:58;;;;;;;41.90;33.70;;;;;;;7.91;75.05;100929.57;108866;1275;22000;-82
2022/12/25 09:09:27;;;;;;;44.20;32.00;;;;;;;7.86;74.95;100928.98;108794;1274;21927;-80
2022/12/25 09:11:56;;;;;;;35.10;30.60;;;;;;;7.89;75.19;100933.93;108772;1275;21926;-81
2022/12/25 09:14:26;;;;;;;40.30;35.20;;;;;;;7.90;75.19;100940.00;108808;1275;21904;-81
2022/12/25 09:16:55;;;;;;;56.80;44.90;;;;;;;7.92;75.15;100940.98;108616;1275;21934;-79
2022/12/25 09:19:24;;;;;;;51.20;44.00;;;;;;;7.93;75.08;100937.85;108649;1275;21942;-78
2022/12/25 09:21:53;;;;;;;45.10;38.00;;;;;;;7.98;75.17;100933.78;108726;1256;21962;-80
2022/12/25 09:24:22;;;;;;;42.00;35.00;;;;;;;7.95;74.79;100932.79;108703;1275;21942;-80
2022/12/25 09:26:52;;;;;;;45.50;40.70;;;;;;;7.93;74.76;100935.77;109167;1263;23595;-81
2022/12/25 09:29:21;;;;;;;48.70;42.60;;;;;;;7.96;74.96;100938.14;108846;1272;23669;-80
2022/12/25 09:31:50;;;;;;;58.20;52.00;;;;;;;8.00;74.92;100939.29;108768;1275;23573;-81
2022/12/25 09:34:19;;;;;;;73.10;65.20;;;;;;;8.08;75.23;100942.27;109066;1275;21952;-82
2022/12/25 09:36:48;;;;;;;73.80;61.70;;;;;;;8.18;75.23;100943.65;108829;1275;22123;-83
2022/12/25 09:39:17;;;;;;;74.30;56.80;;;;;;;8.23;74.97;100949.28;108692;1269;23665;-80
2022/12/25 09:41:55;;;;;;;77.10;61.40;;;;;;;8.25;74.68;100951.34;108687;1275;23048;-80
2022/12/25 09:44:33;;;;;;;81.50;67.10;;;;;;;8.26;74.46;100948.02;108911;1271;21935;-80
2022/12/25 09:47:12;;;;;;;54.00;44.60;;;;;;;8.25;74.31;100945.08;108764;1275;23749;-80
2022/12/25 09:50:05;;;;;;;50.80;40.70;;;;;;;8.24;74.28;100948.05;108823;1275;21966;-80
2022/12/25 09:52:48;;;;;;;45.50;40.80;;;;;;;8.25;74.33;100949.59;109020;1271;21944;-81
2022/12/25 09:55:23;;;;;;;;;;;;;;;8.23;74.01;100950.83;108932;1269;21937;-80
2022/12/25 09:57:59;;;;;;;64.30;56.50;;;;;;;8.10;74.08;100953.83;109073;1264;21906;-80
2022/12/25 10:00:37;;;;;;;79.20;71.20;;;;;;;8.10;74.11;100956.98;108973;1275;23965;-80
2022/12/25 10:03:40;;;;;;;57.50;51.40;;;;;;;8.09;74.05;100955.59;108956;1269;24313;-80
2022/12/25 10:06:30;;;;;;;47.60;41.80;;;;;;;8.09;74.05;100956.65;109008;1275;21937;-80
2022/12/25 10:09:22;;;;;;;55.50;49.60;;;;;;;8.10;74.44;100956.63;108669;1280;21931;-81
2022/12/25 10:12:09;;;;;;;53.00;47.20;;;;;;;8.15;74.48;100957.21;108401;1280;22676;-84
2022/12/25 10:15:11;;;;;;;51.60;43.00;;;;;;;8.20;74.50;100958.86;108517;1283;22003;-80
2022/12/25 10:18:24;;;;;;;44.60;37.80;;;;;;;8.25;74.51;100959.29;108528;1280;22444;-80
2022/12/25 10:20:57;;;;;;;52.00;41.70;;;;;;;8.16;73.98;100961.71;108161;1289;21952;-79
2022/12/25 10:23:37;;;;;;;57.70;44.50;;;;;;;8.14;74.12;100964.69;107984;1286;21945;-80
2022/12/25 10:26:24;;;;;;;53.50;42.90;;;;;;;8.20;74.41;100959.91;108425;1286;21949;-80
2022/12/25 10:29:15;;;;;;;75.60;61.80;;;;;;;8.26;74.42;100957.37;108792;1283;21960;-79
2022/12/25 10:31:52;;;;;;;62.60;49.20;;;;;;;8.30;74.39;100948.96;107507;1283;1315325;-81
2022/12/25 10:34:22;;;;;;;83.50;68.30;;;;;;;8.33;74.32;100938.00;108415;1283;21967;-79
2022/12/25 10:36:52;;;;;;;50.70;38.90;;;;;;;8.36;74.03;100932.55;108327;1280;23005;-80
2022/12/25 10:39:24;;;;;;;67.50;60.10;;;;;;;8.35;74.11;100927.37;108579;1282;21947;-81
2022/12/25 10:42:33;;;;;;;58.30;49.00;;;;;;;8.37;74.06;100925.42;108455;1280;21965;-80
2022/12/25 10:45:07;;;;;;;53.00;46.80;;;;;;;8.39;74.19;100923.83;108188;1283;21962;-80
2022/12/25 10:47:41;;;;;;;54.30;41.70;;;;;;;8.46;74.12;100925.81;108241;1283;21950;-81
2022/12/25 10:50:21;;;;;;;42.60;37.10;;;;;;;8.45;73.55;100923.39;108565;1271;21963;-80
2022/12/25 10:53:08;;;;;;;49.10;42.10;;;;;;;8.42;73.56;100925.34;108476;1283;21963;-81
2022/12/25 10:55:38;;;;;;;52.80;45.30;;;;;;;8.37;73.30;100919.20;108456;1275;22406;-79
2022/12/25 10:58:20;;;;;;;48.10;41.10;;;;;;;8.32;73.23;100920.48;108738;1275;21985;-80
2022/12/25 11:01:07;;;;;;;37.50;31.30;;;;;;;8.29;73.40;100923.50;108959;1275;21990;-81
2022/12/25 11:03:45;;;;;;;38.10;31.50;;;;;;;8.16;73.04;100916.97;108927;1275;21944;-83
2022/12/25 11:06:29;;;;;;;44.70;37.60;;;;;;;8.13;73.43;100912.35;108272;1275;23789;-82
2022/12/25 11:09:01;;;;;;;77.70;64.40;;;;;;;8.20;73.96;100913.44;108279;1275;21966;-80
2022/12/25 11:11:40;;;;;;;54.00;41.80;;;;;;;8.28;74.09;100910.86;108591;1272;21945;-81
2022/12/25 11:14:19;;;;;;;45.00;37.10;;;;;;;8.32;73.72;100906.80;108637;1278;23857;-81
2022/12/25 11:16:49;;;;;;;56.80;43.80;;;;;;;8.24;73.39;100908.69;108395;1271;21946;-80
2022/12/25 11:19:31;;;;;;;50.00;40.60;;;;;;;8.25;73.87;100907.27;108469;1275;24291;-80
2022/12/25 11:22:03;;;;;;;50.00;40.20;;;;;;;8.28;73.67;100908.08;108295;1281;21910;-80
2022/12/25 11:24:33;;;;;;;62.60;48.10;;;;;;;8.28;73.72;100908.42;108539;1278;22063;-79
2022/12/25 11:27:05;;;;;;;57.70;44.60;;;;;;;8.33;73.79;100904.17;108486;1280;21924;-81
2022/12/25 11:30:03;;;;;;;65.10;44.10;;;;;;;8.37;73.91;100902.02;108667;1275;22709;-77
2022/12/25 11:32:54;;;;;;;63.00;47.60;;;;;;;8.44;74.21;100901.39;108675;1275;21947;-78
2022/12/25 11:35:29;;;;;;;54.80;44.80;;;;;;;8.55;74.32;100896.31;108655;1275;21931;-78
2022/12/25 11:37:58;;;;;;;59.30;46.20;;;;;;;8.66;74.12;100891.04;108825;1275;22317;-78
2022/12/25 11:40:38;;;;;;;69.70;55.10;;;;;;;8.74;73.87;100887.75;108742;1266;21958;-79
2022/12/25 11:43:28;;;;;;;69.00;56.00;;;;;;;8.80;73.74;100889.36;108608;1275;21924;-79
2022/12/25 11:46:12;;;;;;;68.80;55.20;;;;;;;8.87;73.83;100894.41;108678;1262;21950;-79
2022/12/25 11:48:48;;;;;;;73.90;59.00;;;;;;;8.98;74.07;100894.86;108671;1277;22760;-78
2022/12/25 11:51:19;;;;;;;66.80;51.60;;;;;;;9.14;74.31;100893.97;108636;1266;22556;-78
2022/12/25 11:53:57;;;;;;;50.40;35.40;;;;;;;9.29;74.04;100895.35;108636;1269;21937;-77
2022/12/25 11:56:29;;;;;;;57.30;41.10;;;;;;;9.37;73.67;100898.12;108666;1266;23054;-78
2022/12/25 11:59:33;;;;;;;;;;;;;;;9.43;73.26;100908.23;108858;1266;23648;-79
2022/12/25 12:02:34;;;;;;;50.70;37.50;;;;;;;9.37;73.23;100912.89;108314;1275;21944;-80
2022/12/25 12:05:15;;;;;;;44.20;34.10;;;;;;;9.36;72.97;100913.44;108328;1274;22879;-80
2022/12/25 12:07:59;;;;;;;57.30;50.60;;;;;;;9.41;72.83;100906.70;108304;1275;21960;-79
2022/12/25 12:10:43;;;;;;;42.50;36.70;;;;;;;9.45;72.36;100900.19;108372;1278;22052;-79
2022/12/25 12:14:06;;;;;;;44.90;39.40;;;;;;;9.30;71.65;100896.58;108426;1272;23677;-79
2022/12/25 12:16:35;;;;;;;57.40;43.40;;;;;;;9.17;72.03;100894.78;108487;1271;23057;-79
2022/12/25 12:19:28;;;;;;;52.50;43.30;;;;;;;9.10;72.11;100889.19;108295;1283;21926;-79
2022/12/25 12:22:02;;;;;;;52.30;40.20;;;;;;;9.02;71.86;100888.88;108431;1273;23071;-78
2022/12/25 12:24:41;;;;;;;46.40;38.80;;;;;;;8.86;71.74;100887.84;108260;1283;22201;-79
2022/12/25 12:27:36;;;;;;;45.70;39.70;;;;;;;8.71;71.81;100886.07;108260;1270;23130;-78
2022/12/25 12:30:27;;;;;;;48.40;41.30;;;;;;;8.58;72.16;100878.89;108282;1273;21940;-78
2022/12/25 12:33:04;;;;;;;59.50;48.80;;;;;;;8.57;72.47;100879.95;108330;1272;21945;-80
2022/12/25 12:35:38;;;;;;;57.50;41.40;;;;;;;8.54;72.42;100880.37;108339;1272;23015;-78
2022/12/25 12:38:18;;;;;;;50.70;45.00;;;;;;;8.47;72.52;100880.50;108425;1284;23119;-79
2022/12/25 12:41:00;;;;;;;48.10;38.40;;;;;;;8.38;72.65;100877.55;108634;1266;21933;-79
2022/12/25 12:43:34;;;;;;;47.80;42.70;;;;;;;8.29;72.65;100878.41;108681;1269;21941;-79
2022/12/25 12:46:29;;;;;;;56.20;42.90;;;;;;;8.24;72.76;100870.19;108730;1262;21952;-78
2022/12/25 12:49:27;;;;;;;56.20;46.10;;;;;;;8.19;72.91;100877.91;108663;1266;21975;-79
2022/12/25 12:52:34;;;;;;;77.50;68.30;;;;;;;8.13;72.99;100881.15;108722;1265;21975;-79
2022/12/25 12:55:08;;;;;;;82.80;64.50;;;;;;;8.03;73.02;100874.41;108819;1265;23580;-79
2022/12/25 12:57:40;;;;;;;72.20;57.90;;;;;;;7.94;72.98;100870.58;108835;1269;21974;-79
2022/12/25 13:00:20;;;;;;;57.90;47.00;;;;;;;7.90;73.13;100867.73;108587;1272;22010;-79
2022/12/25 13:03:24;;;;;;;63.10;49.00;;;;;;;7.81;73.23;100867.89;108621;1278;22344;-79
2022/12/25 13:06:10;;;;;;;65.00;53.40;;;;;;;7.70;73.41;100871.03;108734;1266;23683;-79
2022/12/25 13:09:04;;;;;;;56.80;47.50;;;;;;;7.68;73.75;100873.32;108796;1266;24033;-80
2022/12/25 13:11:42;;;;;;;72.70;62.20;;;;;;;7.71;73.99;100877.25;108749;1266;23695;-81
2022/12/25 13:14:21;;;;;;;67.30;53.50;;;;;;;7.71;73.87;100883.84;108572;1273;21921;-78
2022/12/25 13:16:53;;;;;;;63.00;49.90;;;;;;;7.66;73.96;100885.81;108832;1271;21984;-80
2022/12/25 13:19:27;;;;;;;53.70;42.90;;;;;;;7.59;73.99;100885.05;108698;1269;21938;-79
2022/12/25 13:22:01;;;;;;;56.10;47.10;;;;;;;7.53;74.03;100876.85;108676;1276;21930;-79
2022/12/25 13:24:34;;;;;;;53.50;44.20;;;;;;;7.49;74.16;100864.81;108636;1270;23681;-78
2022/12/25 13:27:32;;;;;;;53.50;44.70;;;;;;;7.44;74.19;100860.04;108606;1275;22385;-79
2022/12/25 13:30:13;;;;;;;62.50;50.30;;;;;;;7.36;74.26;100863.63;108679;1274;21768;-80
2022/12/25 13:32:44;;;;;;;79.00;65.00;;;;;;;7.33;74.53;100873.36;108543;1283;23071;-79
2022/12/25 13:35:16;;;;;;;82.40;66.60;;;;;;;7.33;74.71;100876.65;108575;1271;21925;-80
2022/12/25 13:37:46;;;;;;;82.00;68.80;;;;;;;7.40;75.07;100879.84;108588;1275;23024;-79